createdAt,value
2022-07-25T00:01:50.395Z,97217.00
2022-07-25T00:04:18.823Z,97221.09
2022-07-25T00:06:46.908Z,97218.31
2022-07-25T00:09:14.979Z,97212.94
2022-07-25T00:11:42.754Z,97209.50
2022-07-25T00:14:10.333Z,97212.72
2022-07-25T00:16:38.033Z,97200.38
2022-07-25T00:19:05.075Z,97196.22
2022-07-25T00:21:32.943Z,97193.16
2022-07-25T00:24:00.546Z,97187.44
2022-07-25T00:26:27.547Z,97180.63
2022-07-25T00:28:55.151Z,97174.16
2022-07-25T00:31:22.051Z,97182.47
2022-07-25T00:33:49.113Z,97168.16
2022-07-25T00:36:16.192Z,97175.16
2022-07-25T00:38:43.575Z,97165.47
2022-07-25T00:41:10.647Z,97155.94
2022-07-25T00:43:37.692Z,97160.69
2022-07-25T00:46:04.935Z,97171.41
2022-07-25T00:48:32.477Z,97173.63
2022-07-25T00:51:00.541Z,97170.63
2022-07-25T00:53:27.518Z,97160.81
2022-07-25T00:55:55.715Z,97164.53
2022-07-25T00:58:22.986Z,97158.78
2022-07-25T01:00:53.076Z,97161.66
2022-07-25T01:03:20.383Z,97165.38
2022-07-25T01:05:53.181Z,97172.63
2022-07-25T01:08:21.952Z,97175.28
2022-07-25T01:10:49.689Z,97171.16
2022-07-25T01:13:16.812Z,97176.53
2022-07-25T01:15:44.214Z,97163.56
2022-07-25T01:18:11.466Z,97176.22
2022-07-25T01:20:40.512Z,97163.88
2022-07-25T01:23:07.646Z,97161.19
2022-07-25T01:25:37.568Z,97159.13
2022-07-25T01:28:14.396Z,97156.00
2022-07-25T01:30:41.693Z,97149.84
2022-07-25T01:33:08.987Z,97152.94
2022-07-25T01:35:40.195Z,97155.47
2022-07-25T01:38:10.215Z,97149.91
2022-07-25T01:40:37.529Z,97142.72
2022-07-25T01:43:05.444Z,97132.19
2022-07-25T01:45:32.575Z,97140.00
2022-07-25T01:48:03.160Z,97135.69
2022-07-25T01:50:30.216Z,97123.53
2022-07-25T01:52:57.377Z,97137.97
2022-07-25T01:55:24.966Z,97131.38
2022-07-25T01:57:53.540Z,97129.72
2022-07-25T02:00:20.707Z,97134.63
2022-07-25T02:02:47.910Z,97127.44
2022-07-25T02:05:16.623Z,97121.06
2022-07-25T02:07:43.883Z,97122.69
2022-07-25T02:10:11.035Z,97115.69
2022-07-25T02:12:38.464Z,97123.53
2022-07-25T02:15:06.105Z,97117.34
2022-07-25T02:17:33.011Z,97124.41
2022-07-25T02:20:00.258Z,97115.16
2022-07-25T02:22:27.390Z,97119.31
2022-07-25T02:24:54.619Z,97133.06
2022-07-25T02:27:22.111Z,97132.47
2022-07-25T02:29:49.162Z,97122.78
2022-07-25T02:32:16.596Z,97112.53
2022-07-25T02:34:43.634Z,97108.81
2022-07-25T02:37:10.751Z,97118.28
2022-07-25T02:39:37.855Z,97098.09
2022-07-25T02:42:05.039Z,97102.81
2022-07-25T02:44:32.567Z,97107.59
2022-07-25T02:46:59.865Z,97106.94
2022-07-25T02:49:26.837Z,97110.88
2022-07-25T02:51:53.982Z,97114.97
2022-07-25T02:54:21.267Z,97113.34
2022-07-25T02:56:48.266Z,97108.22
2022-07-25T02:59:15.411Z,97108.03
2022-07-25T03:01:42.476Z,97107.59
2022-07-25T03:04:10.214Z,97113.56
2022-07-25T03:06:37.998Z,97111.94
2022-07-25T03:10:00.977Z,97104.09
2022-07-25T03:12:28.734Z,97103.09
2022-07-25T03:14:59.845Z,97108.44
2022-07-25T03:17:32.632Z,97110.50
2022-07-25T03:20:01.150Z,97115.03
2022-07-25T03:22:34.182Z,97113.78
2022-07-25T03:25:15.709Z,97119.56
2022-07-25T03:27:52.476Z,97117.91
2022-07-25T03:30:21.309Z,97103.72
2022-07-25T03:32:53.027Z,97111.34
2022-07-25T03:35:36.897Z,97112.16
2022-07-25T03:38:09.990Z,97103.50
2022-07-25T03:40:38.624Z,97112.56
2022-07-25T03:43:19.970Z,97107.81
2022-07-25T03:46:03.339Z,97105.13
2022-07-25T03:48:31.364Z,97104.31
2022-07-25T03:51:06.867Z,97104.31
2022-07-25T03:54:00.170Z,97108.81
2022-07-25T03:56:30.701Z,97119.53
2022-07-25T03:59:06.377Z,97113.97
2022-07-25T04:01:39.626Z,97111.91
2022-07-25T04:04:16.463Z,97109.44
2022-07-25T04:06:45.362Z,97112.13
2022-07-25T04:09:22.127Z,97116.84
2022-07-25T04:11:51.414Z,97114.56
2022-07-25T04:14:22.336Z,97112.53
2022-07-25T04:16:53.610Z,97112.06
2022-07-25T04:19:28.865Z,97124.84
2022-07-25T04:22:02.333Z,97118.25
2022-07-25T04:27:41.291Z,97120.91
2022-07-25T04:30:11.261Z,97132.44
2022-07-25T04:32:41.580Z,97134.31
2022-07-25T04:35:37.324Z,97137.16
2022-07-25T04:38:11.931Z,97138.03
2022-07-25T04:40:50.941Z,97148.50
2022-07-25T04:43:27.404Z,97154.03
2022-07-25T04:45:55.012Z,97153.63
2022-07-25T04:48:22.011Z,97156.06
2022-07-25T04:50:49.204Z,97156.44
2022-07-25T04:53:16.268Z,97164.81
2022-07-25T04:55:43.487Z,97152.59
2022-07-25T04:58:10.879Z,97155.88
2022-07-25T05:00:41.123Z,97163.47
2022-07-25T05:03:08.161Z,97157.59
2022-07-25T05:05:35.372Z,97160.16
2022-07-25T05:08:02.548Z,97148.19
2022-07-25T05:10:30.782Z,97158.59
2022-07-25T05:12:57.918Z,97162.22
2022-07-25T05:15:25.148Z,97167.13
2022-07-25T05:17:52.661Z,97161.75
2022-07-25T05:20:19.708Z,97163.41
2022-07-25T05:22:47.356Z,97168.31
2022-07-25T05:25:14.488Z,97166.19
2022-07-25T05:27:41.924Z,97168.63
2022-07-25T05:30:10.336Z,97166.94
2022-07-25T05:32:39.052Z,97173.28
2022-07-25T05:35:49.699Z,97177.25
2022-07-25T05:38:25.264Z,97181.53
2022-07-25T05:40:55.217Z,97195.34
2022-07-25T05:47:13.529Z,97186.69
2022-07-25T05:49:43.119Z,97189.91
2022-07-25T05:52:15.292Z,97196.88
2022-07-25T05:54:55.156Z,97182.78
2022-07-25T05:57:25.531Z,97180.69
2022-07-25T05:59:53.671Z,97191.66
2022-07-25T06:02:21.264Z,97182.31
2022-07-25T06:05:07.422Z,97184.66
2022-07-25T06:07:35.912Z,97193.41
2022-07-25T06:13:03.499Z,97187.91
2022-07-25T06:15:34.934Z,97195.53
2022-07-25T06:18:22.727Z,97188.16
2022-07-25T06:29:10.710Z,97190.03
2022-07-25T06:31:39.596Z,97184.66
2022-07-25T06:34:40.990Z,97182.88
2022-07-25T06:38:39.074Z,97183.78
2022-07-25T06:40:11.307Z,97170.13
2022-07-25T06:43:08.359Z,97198.13
2022-07-25T06:45:50.325Z,97192.41
2022-07-25T06:48:52.435Z,97191.50
2022-07-25T06:51:19.520Z,97185.88
2022-07-25T06:54:15.571Z,97191.72
2022-07-25T06:56:48.804Z,97186.06
2022-07-25T06:59:16.208Z,97187.53
2022-07-25T07:01:46.999Z,97177.25
2022-07-25T07:04:24.825Z,97179.84
2022-07-25T07:07:09.994Z,97181.00
2022-07-25T07:09:40.452Z,97185.69
2022-07-25T07:12:12.022Z,97185.84
2022-07-25T07:14:55.791Z,97189.25
2022-07-25T07:17:24.908Z,97190.63
2022-07-25T07:23:36.751Z,97175.41
2022-07-25T07:29:05.561Z,97175.94
2022-07-25T07:34:53.006Z,97184.50
2022-07-25T07:37:31.631Z,97175.28
2022-07-25T07:40:17.898Z,97182.56
2022-07-25T07:42:49.486Z,97181.66
2022-07-25T07:45:27.858Z,97185.59
2022-07-25T07:48:00.402Z,97185.66
2022-07-25T07:50:35.136Z,97191.44
2022-07-25T07:53:49.642Z,97184.19
2022-07-25T07:59:40.186Z,97195.34
2022-07-25T08:02:17.818Z,97188.00
2022-07-25T08:04:52.384Z,97181.38
2022-07-25T08:07:19.565Z,97184.22
2022-07-25T08:09:47.172Z,97180.69
2022-07-25T08:12:36.107Z,97177.44
2022-07-25T08:15:17.767Z,97170.91
2022-07-25T08:18:01.094Z,97173.25
2022-07-25T08:20:54.948Z,97174.28
2022-07-25T08:23:59.987Z,97175.66
2022-07-25T08:31:12.491Z,97173.31
2022-07-25T08:34:20.874Z,97165.25
2022-07-25T08:37:31.374Z,97171.22
2022-07-25T08:40:52.639Z,97166.94
2022-07-25T08:46:32.444Z,97156.34
2022-07-25T08:49:04.071Z,97160.16
2022-07-25T08:51:53.338Z,97163.94
2022-07-25T08:55:04.163Z,97153.06
2022-07-25T08:57:38.467Z,97161.69
2022-07-25T09:00:20.856Z,97154.41
2022-07-25T09:03:07.232Z,97158.53
2022-07-25T09:05:37.268Z,97151.41
2022-07-25T09:08:25.185Z,97154.94
2022-07-25T09:10:55.124Z,97157.97
2022-07-25T09:20:22.513Z,97138.91
2022-07-25T09:24:58.649Z,97143.97
2022-07-25T09:29:14.565Z,97140.16
2022-07-25T09:31:43.771Z,97136.88
2022-07-25T09:34:29.559Z,97144.03
2022-07-25T09:37:09.184Z,97146.06
2022-07-25T09:39:49.289Z,97151.47
2022-07-25T09:42:30.454Z,97140.38
2022-07-25T09:45:23.855Z,97139.59
2022-07-25T09:48:17.064Z,97138.09
2022-07-25T09:50:47.766Z,97128.16
2022-07-25T09:53:18.929Z,97131.63
2022-07-25T09:55:50.641Z,97139.97
2022-07-25T09:58:31.026Z,97129.69
2022-07-25T10:03:24.229Z,97130.41
2022-07-25T10:09:09.307Z,97126.28
2022-07-25T10:15:03.384Z,97118.47
2022-07-25T10:18:16.691Z,97104.78
2022-07-25T10:24:19.559Z,97101.16
2022-07-25T10:27:20.010Z,97116.25
2022-07-25T10:36:29.327Z,97098.97
2022-07-25T10:40:47.985Z,97092.84
2022-07-25T10:46:15.847Z,97089.91
2022-07-25T10:49:16.592Z,97088.28
2022-07-25T10:51:56.124Z,97081.09
2022-07-25T11:01:15.095Z,97076.81
2022-07-25T11:03:59.939Z,97070.31
2022-07-25T11:13:33.451Z,97076.91
2022-07-25T11:19:10.359Z,97047.38
2022-07-25T11:22:19.450Z,97056.47
2022-07-25T11:24:48.672Z,97061.28
2022-07-25T11:27:20.846Z,97009.53
2022-07-25T11:29:48.367Z,97052.97
2022-07-25T11:32:34.325Z,97047.16
2022-07-25T11:35:24.256Z,97033.44
2022-07-25T11:37:58.822Z,97030.22
2022-07-25T11:40:43.027Z,97026.38
2022-07-25T11:43:30.482Z,97025.97
2022-07-25T11:46:17.817Z,97034.94
2022-07-25T11:48:45.338Z,97028.09
2022-07-25T11:51:22.126Z,97014.97
2022-07-25T11:53:51.855Z,97017.25
2022-07-25T11:56:42.877Z,97012.84
2022-07-25T11:59:18.865Z,97013.03
2022-07-25T12:01:58.175Z,97013.28
2022-07-25T12:04:35.520Z,96996.53
2022-07-25T12:07:06.458Z,96997.19
2022-07-25T12:09:34.019Z,96992.16
2022-07-25T12:12:25.499Z,96988.75
2022-07-25T12:14:59.005Z,96998.63
2022-07-25T12:17:35.975Z,96994.09
2022-07-25T12:20:10.847Z,96993.34
2022-07-25T12:22:54.993Z,96988.03
2022-07-25T12:25:36.645Z,96992.69
2022-07-25T12:28:04.785Z,96983.47
2022-07-25T12:30:32.625Z,96986.19
2022-07-25T12:33:00.925Z,96979.59
2022-07-25T12:35:31.256Z,96968.66
2022-07-25T12:37:58.613Z,96967.88
2022-07-25T12:40:26.506Z,96971.03
2022-07-25T12:42:59.695Z,96977.56
2022-07-25T12:45:30.549Z,96966.81
2022-07-25T12:47:58.415Z,96960.53
2022-07-25T12:50:26.217Z,96964.16
2022-07-25T12:52:53.930Z,96952.00
2022-07-25T12:55:23.876Z,96963.31
2022-07-25T12:57:54.186Z,96952.09
2022-07-25T13:00:39.882Z,96956.13
2022-07-25T13:03:07.633Z,96954.06
2022-07-25T13:05:59.297Z,96947.31
2022-07-25T13:08:26.991Z,96949.53
2022-07-25T13:11:20.687Z,96956.44
2022-07-25T13:13:53.890Z,96940.41
2022-07-25T13:16:33.315Z,96941.25
2022-07-25T13:19:00.594Z,96935.88
2022-07-25T13:21:27.744Z,96937.97
2022-07-25T13:23:54.546Z,96937.31
2022-07-25T13:26:21.786Z,96947.16
2022-07-25T13:28:49.457Z,96937.16
2022-07-25T13:31:23.527Z,96944.41
2022-07-25T13:33:53.857Z,96933.50
2022-07-25T13:36:24.489Z,96939.81
2022-07-25T13:38:51.983Z,96925.34
2022-07-25T13:41:19.397Z,96932.91
2022-07-25T13:43:48.311Z,96935.03
2022-07-25T13:46:15.647Z,96923.03
2022-07-25T13:48:43.282Z,96924.34
2022-07-25T13:51:13.522Z,96929.72
2022-07-25T13:53:40.695Z,96927.38
2022-07-25T13:56:07.915Z,96934.00
2022-07-25T13:58:35.298Z,96928.88
2022-07-25T14:01:02.800Z,96926.94
2022-07-25T14:03:30.554Z,96928.78
2022-07-25T14:06:00.972Z,96924.81
2022-07-25T14:08:28.333Z,96926.19
2022-07-25T14:10:55.795Z,96929.50
2022-07-25T14:13:23.159Z,96927.56
2022-07-25T14:15:50.274Z,96926.59
2022-07-25T14:18:17.659Z,96921.31
2022-07-25T14:20:48.547Z,96926.50
2022-07-25T14:23:15.848Z,96922.19
2022-07-25T14:25:43.361Z,96916.25
2022-07-25T14:28:21.225Z,96916.06
2022-07-25T14:30:49.233Z,96911.72
2022-07-25T14:33:25.930Z,96912.78
2022-07-25T14:35:53.737Z,96920.75
2022-07-25T14:38:20.988Z,96906.00
2022-07-25T14:40:48.922Z,96908.00
2022-07-25T14:43:18.928Z,96911.63
2022-07-25T14:45:46.478Z,96917.81
2022-07-25T14:48:23.061Z,96910.06
2022-07-25T14:50:50.428Z,96908.03
2022-07-25T14:53:20.518Z,96907.63
2022-07-25T14:55:48.273Z,96901.00
2022-07-25T14:58:21.132Z,96899.38
2022-07-25T15:00:57.790Z,96903.06
2022-07-25T15:03:25.120Z,96898.03
2022-07-25T15:05:52.417Z,96897.97
2022-07-25T15:08:20.169Z,96889.41
2022-07-25T15:10:47.724Z,96893.28
2022-07-25T15:13:30.515Z,96883.53
2022-07-25T15:15:58.967Z,96888.72
2022-07-25T15:18:29.293Z,96882.53
2022-07-25T15:21:07.593Z,96889.03
2022-07-25T15:23:37.494Z,96887.97
2022-07-25T15:26:08.742Z,96885.53
2022-07-25T15:28:38.703Z,96885.81
2022-07-25T15:31:12.128Z,96883.63
2022-07-25T15:33:39.902Z,96884.69
2022-07-25T15:36:17.841Z,96891.47
2022-07-25T15:38:47.742Z,96875.72
2022-07-25T15:41:18.151Z,96879.22
2022-07-25T15:43:48.327Z,96881.66
2022-07-25T15:46:18.478Z,96883.03
2022-07-25T15:48:46.059Z,96887.94
2022-07-25T15:51:18.894Z,96886.59
2022-07-25T15:53:48.682Z,96881.44
2022-07-25T15:56:17.255Z,96880.88
2022-07-25T15:58:44.998Z,96888.50
2022-07-25T16:01:12.795Z,96884.16
2022-07-25T16:03:40.322Z,96885.53
2022-07-25T16:06:13.270Z,96884.72
2022-07-25T16:08:46.716Z,96887.41
2022-07-25T16:11:17.878Z,96887.41
2022-07-25T16:13:45.627Z,96892.28
2022-07-25T16:16:13.042Z,96893.88
2022-07-25T16:18:40.372Z,96891.69
2022-07-25T16:21:07.714Z,96889.75
2022-07-25T16:23:44.892Z,96894.09
2022-07-25T16:26:12.730Z,96895.41
2022-07-25T16:28:41.873Z,96900.50
2022-07-25T16:31:19.609Z,96903.97
2022-07-25T16:33:47.037Z,96900.09
2022-07-25T16:36:14.260Z,96894.63
2022-07-25T16:38:41.665Z,96899.16
2022-07-25T16:41:10.066Z,96896.16
2022-07-25T16:43:37.559Z,96898.34
2022-07-25T16:46:04.885Z,96898.31
2022-07-25T16:48:32.230Z,96904.16
2022-07-25T16:50:59.706Z,96904.13
2022-07-25T16:53:29.024Z,96906.81
2022-07-25T16:55:56.315Z,96900.25
2022-07-25T16:58:23.419Z,96907.25
2022-07-25T17:00:50.262Z,96901.78
2022-07-25T17:03:17.292Z,96903.91
2022-07-25T17:05:44.480Z,96904.63
2022-07-25T17:08:15.191Z,96906.53
2022-07-25T17:10:42.621Z,96912.91
2022-07-25T17:13:09.756Z,96911.16
2022-07-25T17:15:37.424Z,96915.72
2022-07-25T17:18:05.008Z,96911.03
2022-07-25T17:20:32.567Z,96900.59
2022-07-25T17:23:00.526Z,96906.75
2022-07-25T17:25:34.137Z,96910.13
2022-07-25T17:28:04.747Z,96917.53
2022-07-25T17:30:35.650Z,96919.03
2022-07-25T17:33:07.578Z,96912.69
2022-07-25T17:35:49.365Z,96921.53
2022-07-25T17:38:18.412Z,96920.34
2022-07-25T17:40:47.805Z,96921.09
2022-07-25T17:43:28.188Z,96916.38
2022-07-25T17:46:02.579Z,96916.69
2022-07-25T17:48:53.230Z,96923.25
2022-07-25T17:51:20.287Z,96933.31
2022-07-25T17:53:47.395Z,96917.22
2022-07-25T17:56:14.765Z,96931.13
2022-07-25T17:58:41.991Z,96927.19
2022-07-25T18:01:10.634Z,96932.28
2022-07-25T18:03:38.679Z,96937.97
2022-07-25T18:06:06.667Z,96945.38
2022-07-25T18:08:35.669Z,96943.09
2022-07-25T18:11:03.820Z,96942.41
2022-07-25T18:13:31.018Z,96941.41
2022-07-25T18:16:10.420Z,96941.44
2022-07-25T18:18:40.569Z,96944.06
2022-07-25T18:21:07.654Z,96948.59
2022-07-25T18:23:34.830Z,96944.31
2022-07-25T18:26:01.950Z,96957.31
2022-07-25T18:28:29.315Z,96960.00
2022-07-25T18:31:10.444Z,96954.66
2022-07-25T18:33:40.705Z,96965.78
2022-07-25T18:36:13.509Z,96967.75
2022-07-25T18:38:54.579Z,96971.94
2022-07-25T18:41:29.635Z,96958.69
2022-07-25T18:43:58.338Z,96975.19
2022-07-25T18:46:25.996Z,96967.56
2022-07-25T18:48:53.765Z,96975.53
2022-07-25T18:51:21.559Z,96970.59
2022-07-25T18:53:49.052Z,96972.78
2022-07-25T18:56:16.206Z,96975.72
2022-07-25T18:58:44.099Z,96987.72
2022-07-25T19:01:11.512Z,96979.28
2022-07-25T19:03:41.024Z,96988.34
2022-07-25T19:06:09.906Z,96989.81
2022-07-25T19:08:40.305Z,96987.81
2022-07-25T19:11:18.813Z,96985.53
2022-07-25T19:14:19.200Z,96988.09
2022-07-25T19:16:39.962Z,96997.81
2022-07-25T19:19:07.823Z,96999.00
2022-07-25T19:21:36.517Z,97002.19
2022-07-25T19:24:04.446Z,97003.44
2022-07-25T19:26:42.083Z,97013.81
2022-07-25T19:29:09.730Z,97009.25
2022-07-25T19:31:47.809Z,97008.44
2022-07-25T19:34:15.162Z,97014.06
2022-07-25T19:36:46.257Z,97016.22
2022-07-25T19:39:14.240Z,97008.25
2022-07-25T19:41:46.453Z,97018.00
2022-07-25T19:44:23.191Z,97020.38
2022-07-25T19:46:50.873Z,97022.44
2022-07-25T19:49:18.974Z,97019.75
2022-07-25T19:51:46.676Z,97020.41
2022-07-25T19:54:18.592Z,97018.56
2022-07-25T19:56:48.105Z,97016.78
2022-07-25T19:59:16.386Z,97013.47
2022-07-25T20:01:44.153Z,97018.03
2022-07-25T20:04:14.803Z,97025.25
2022-07-25T20:06:42.770Z,97023.66
2022-07-25T20:09:10.626Z,97021.44
2022-07-25T20:11:40.342Z,97019.41
2022-07-25T20:14:08.342Z,97021.50
2022-07-25T20:16:37.508Z,97019.00
2022-07-25T20:19:12.437Z,97013.91
2022-07-25T20:21:44.190Z,97010.00
2022-07-25T20:24:21.294Z,97020.00
2022-07-25T20:26:49.232Z,97027.47
2022-07-25T20:29:17.474Z,97021.09
2022-07-25T20:31:46.362Z,97025.03
2022-07-25T20:34:14.490Z,97028.41
2022-07-25T20:39:10.653Z,97020.19
2022-07-25T20:41:40.496Z,97016.53
2022-07-25T20:44:09.172Z,97023.13
2022-07-25T20:46:37.947Z,97029.31
2022-07-25T20:49:12.884Z,97026.81
2022-07-25T20:51:41.894Z,97035.06
2022-07-25T20:54:13.583Z,97032.41
2022-07-25T20:56:40.992Z,97031.41
2022-07-25T20:59:13.787Z,97033.47
2022-07-25T21:01:47.382Z,97034.28
2022-07-25T21:04:18.236Z,97047.88
2022-07-25T21:06:46.513Z,97043.34
2022-07-25T21:09:17.845Z,97037.19
2022-07-25T21:11:46.207Z,97031.06
2022-07-25T21:14:14.458Z,97034.38
2022-07-25T21:16:45.201Z,97041.38
2022-07-25T21:19:13.217Z,97042.59
2022-07-25T21:21:44.237Z,97044.06
2022-07-25T21:24:13.230Z,97039.75
2022-07-25T21:26:41.263Z,97034.19
2022-07-25T21:29:13.915Z,97038.31
2022-07-25T21:31:42.688Z,97036.25
2022-07-25T21:34:11.182Z,97035.84
2022-07-25T21:36:39.074Z,97032.75
2022-07-25T21:39:06.487Z,97036.41
2022-07-25T21:41:37.859Z,97034.41
2022-07-25T21:44:06.123Z,97027.16
2022-07-25T21:46:34.586Z,97037.44
2022-07-25T21:49:25.491Z,97033.53
2022-07-25T21:52:08.949Z,97036.44
2022-07-25T21:54:44.511Z,97039.69
2022-07-25T21:57:13.464Z,97038.91
2022-07-25T21:59:45.893Z,97036.41
2022-07-25T22:02:16.765Z,97039.31
2022-07-25T22:04:44.414Z,97031.06
2022-07-25T22:07:11.691Z,97032.91
2022-07-25T22:09:40.042Z,97035.00
2022-07-25T22:12:09.721Z,97030.25
2022-07-25T22:14:40.569Z,97022.44
2022-07-25T22:17:12.477Z,97034.34
2022-07-25T22:19:40.625Z,97039.50
2022-07-25T22:22:08.289Z,97033.50
2022-07-25T22:24:41.914Z,97022.41
2022-07-25T22:27:15.297Z,97019.13
2022-07-25T22:29:43.213Z,97021.38
2022-07-25T22:32:11.563Z,97024.66
2022-07-25T22:34:39.011Z,97017.47
2022-07-25T22:37:10.601Z,97017.88
2022-07-25T22:39:40.618Z,97023.63
2022-07-25T22:42:11.139Z,97009.44
2022-07-25T22:44:47.631Z,97009.03
2022-07-25T22:47:16.478Z,97010.00
2022-07-25T22:49:45.024Z,97007.94
2022-07-25T22:52:12.876Z,96999.31
2022-07-25T22:54:41.235Z,97003.00
2022-07-25T22:57:18.411Z,97001.16
2022-07-25T22:59:49.880Z,96998.44
2022-07-25T23:02:20.267Z,96996.81
2022-07-25T23:04:53.357Z,97001.34
2022-07-25T23:07:21.688Z,96999.25
2022-07-25T23:09:52.768Z,96990.66
2022-07-25T23:12:21.278Z,96994.53
2022-07-25T23:14:49.529Z,96986.47
2022-07-25T23:17:26.090Z,96985.44
2022-07-25T23:19:56.245Z,96984.00
2022-07-25T23:22:27.320Z,96974.53
2022-07-25T23:24:57.040Z,96979.47
2022-07-25T23:27:29.466Z,96978.69
2022-07-25T23:30:09.971Z,96968.00
2022-07-25T23:32:38.149Z,96971.69
2022-07-25T23:35:10.125Z,96969.19
2022-07-25T23:37:38.432Z,96968.63
2022-07-25T23:40:11.306Z,96969.63
2022-07-25T23:42:43.562Z,96966.72
2022-07-25T23:45:12.623Z,96961.75
2022-07-25T23:47:41.358Z,96959.53
2022-07-25T23:50:13.521Z,96960.97
2022-07-25T23:52:42.511Z,96965.88
2022-07-25T23:55:11.092Z,96957.47
2022-07-25T23:57:40.470Z,96951.09
